sensor_id;sensor_type;location;lat;lon;timestamp;P1;durP1;ratioP1;P2;durP2;ratioP2
69036;SDS011;58547;51.690;5.186;2022-09-09T00:00:14;5.20;;;2.30;;
69036;SDS011;58547;51.690;5.186;2022-09-09T00:03:27;4.00;;;1.65;;
69036;SDS011;58547;51.690;5.186;2022-09-09T00:05:44;3.15;;;1.67;;
69036;SDS011;58547;51.690;5.186;2022-09-09T00:08:51;3.80;;;1.65;;
69036;SDS011;58547;51.690;5.186;2022-09-09T00:11:36;4.57;;;2.00;;
69036;SDS011;58547;51.690;5.186;2022-09-09T00:14:18;6.03;;;1.80;;
69036;SDS011;58547;51.690;5.186;2022-09-09T00:16:54;2.63;;;1.70;;
69036;SDS011;58547;51.690;5.186;2022-09-09T00:22:18;2.88;;;1.80;;
69036;SDS011;58547;51.690;5.186;2022-09-09T00:24:46;4.93;;;2.25;;
69036;SDS011;58547;51.690;5.186;2022-09-09T00:27:21;3.17;;;1.80;;
69036;SDS011;58547;51.690;5.186;2022-09-09T00:29:51;6.80;;;2.20;;
69036;SDS011;58547;51.690;5.186;2022-09-09T00:32:20;5.57;;;2.35;;
69036;SDS011;58547;51.690;5.186;2022-09-09T00:37:14;3.47;;;2.42;;
69036;SDS011;58547;51.690;5.186;2022-09-09T00:39:41;4.50;;;1.95;;
69036;SDS011;58547;51.690;5.186;2022-09-09T00:42:52;3.30;;;2.22;;
69036;SDS011;58547;51.690;5.186;2022-09-09T00:48:05;4.18;;;2.20;;
69036;SDS011;58547;51.690;5.186;2022-09-09T00:50:44;4.05;;;2.20;;
69036;SDS011;58547;51.690;5.186;2022-09-09T00:53:22;6.35;;;2.20;;
69036;SDS011;58547;51.690;5.186;2022-09-09T00:56:27;3.05;;;2.30;;
69036;SDS011;58547;51.690;5.186;2022-09-09T01:01:45;3.70;;;2.00;;
69036;SDS011;58547;51.690;5.186;2022-09-09T01:06:45;5.47;;;2.63;;
69036;SDS011;58547;51.690;5.186;2022-09-09T01:09:38;5.25;;;2.85;;
69036;SDS011;58547;51.690;5.186;2022-09-09T01:15:13;3.78;;;2.40;;
69036;SDS011;58547;51.690;5.186;2022-09-09T01:20:19;10.95;;;3.35;;
69036;SDS011;58547;51.690;5.186;2022-09-09T01:30:38;4.07;;;3.15;;
69036;SDS011;58547;51.690;5.186;2022-09-09T01:33:05;6.82;;;3.85;;
69036;SDS011;58547;51.690;5.186;2022-09-09T01:35:37;6.57;;;3.03;;
69036;SDS011;58547;51.690;5.186;2022-09-09T01:38:07;7.25;;;3.22;;
69036;SDS011;58547;51.690;5.186;2022-09-09T01:42:58;5.97;;;3.33;;
69036;SDS011;58547;51.690;5.186;2022-09-09T01:47:50;5.80;;;2.33;;
69036;SDS011;58547;51.690;5.186;2022-09-09T01:50:17;11.90;;;3.25;;
69036;SDS011;58547;51.690;5.186;2022-09-09T01:52:44;7.70;;;3.33;;
69036;SDS011;58547;51.690;5.186;2022-09-09T01:55:13;3.95;;;2.90;;
69036;SDS011;58547;51.690;5.186;2022-09-09T02:00:15;9.48;;;2.80;;
69036;SDS011;58547;51.690;5.186;2022-09-09T02:08:13;4.43;;;3.10;;
69036;SDS011;58547;51.690;5.186;2022-09-09T02:10:46;5.88;;;3.95;;
69036;SDS011;58547;51.690;5.186;2022-09-09T02:13:17;6.28;;;2.83;;
69036;SDS011;58547;51.690;5.186;2022-09-09T02:18:19;6.00;;;2.75;;
69036;SDS011;58547;51.690;5.186;2022-09-09T02:20:53;6.35;;;3.45;;
69036;SDS011;58547;51.690;5.186;2022-09-09T02:25:44;6.55;;;3.40;;
69036;SDS011;58547;51.690;5.186;2022-09-09T02:28:11;6.28;;;2.88;;
69036;SDS011;58547;51.690;5.186;2022-09-09T02:30:39;4.40;;;2.60;;
69036;SDS011;58547;51.690;5.186;2022-09-09T02:33:07;6.28;;;3.17;;
69036;SDS011;58547;51.690;5.186;2022-09-09T02:35:35;6.82;;;3.45;;
69036;SDS011;58547;51.690;5.186;2022-09-09T02:38:03;5.68;;;3.33;;
69036;SDS011;58547;51.690;5.186;2022-09-09T02:40:31;5.20;;;3.25;;
69036;SDS011;58547;51.690;5.186;2022-09-09T02:45:24;6.97;;;2.80;;
69036;SDS011;58547;51.690;5.186;2022-09-09T02:48:03;5.57;;;2.75;;
69036;SDS011;58547;51.690;5.186;2022-09-09T02:50:45;6.13;;;2.80;;
69036;SDS011;58547;51.690;5.186;2022-09-09T02:53:18;5.95;;;2.78;;
69036;SDS011;58547;51.690;5.186;2022-09-09T02:58:37;9.82;;;3.10;;
69036;SDS011;58547;51.690;5.186;2022-09-09T03:01:04;6.55;;;3.78;;
69036;SDS011;58547;51.690;5.186;2022-09-09T03:05:56;8.07;;;4.47;;
69036;SDS011;58547;51.690;5.186;2022-09-09T03:10:47;8.27;;;3.35;;
69036;SDS011;58547;51.690;5.186;2022-09-09T03:13:12;6.47;;;3.00;;
69036;SDS011;58547;51.690;5.186;2022-09-09T03:18:03;11.30;;;3.33;;
69036;SDS011;58547;51.690;5.186;2022-09-09T03:20:28;6.85;;;3.00;;
69036;SDS011;58547;51.690;5.186;2022-09-09T03:22:55;7.68;;;3.10;;
69036;SDS011;58547;51.690;5.186;2022-09-09T03:25:21;7.05;;;3.05;;
69036;SDS011;58547;51.690;5.186;2022-09-09T03:27:50;6.53;;;2.80;;
69036;SDS011;58547;51.690;5.186;2022-09-09T03:30:19;6.32;;;2.95;;
69036;SDS011;58547;51.690;5.186;2022-09-09T03:35:10;6.85;;;2.70;;
69036;SDS011;58547;51.690;5.186;2022-09-09T03:37:35;7.03;;;2.95;;
69036;SDS011;58547;51.690;5.186;2022-09-09T03:42:26;7.03;;;2.47;;
69036;SDS011;58547;51.690;5.186;2022-09-09T03:44:52;5.53;;;2.65;;
69036;SDS011;58547;51.690;5.186;2022-09-09T03:47:18;3.60;;;2.42;;
69036;SDS011;58547;51.690;5.186;2022-09-09T03:49:49;5.45;;;2.92;;
69036;SDS011;58547;51.690;5.186;2022-09-09T03:54:41;5.85;;;3.25;;
69036;SDS011;58547;51.690;5.186;2022-09-09T03:57:07;5.50;;;2.63;;
69036;SDS011;58547;51.690;5.186;2022-09-09T03:59:33;8.70;;;2.80;;
69036;SDS011;58547;51.690;5.186;2022-09-09T04:01:59;7.32;;;3.22;;
69036;SDS011;58547;51.690;5.186;2022-09-09T04:06:51;6.22;;;2.83;;
69036;SDS011;58547;51.690;5.186;2022-09-09T04:11:42;10.77;;;3.03;;
69036;SDS011;58547;51.690;5.186;2022-09-09T04:14:07;6.47;;;2.47;;
69036;SDS011;58547;51.690;5.186;2022-09-09T04:16:33;6.00;;;3.80;;
69036;SDS011;58547;51.690;5.186;2022-09-09T04:19:02;7.32;;;3.47;;
69036;SDS011;58547;51.690;5.186;2022-09-09T04:21:29;6.13;;;2.90;;
69036;SDS011;58547;51.690;5.186;2022-09-09T04:26:20;8.63;;;3.00;;
69036;SDS011;58547;51.690;5.186;2022-09-09T04:28:45;12.85;;;3.67;;
69036;SDS011;58547;51.690;5.186;2022-09-09T04:31:14;9.00;;;3.53;;
69036;SDS011;58547;51.690;5.186;2022-09-09T04:33:42;11.82;;;3.60;;
69036;SDS011;58547;51.690;5.186;2022-09-09T04:38:33;7.97;;;3.20;;
69036;SDS011;58547;51.690;5.186;2022-09-09T04:40:58;8.38;;;3.65;;
69036;SDS011;58547;51.690;5.186;2022-09-09T04:43:24;5.53;;;3.00;;
69036;SDS011;58547;51.690;5.186;2022-09-09T04:45:50;10.88;;;3.50;;
69036;SDS011;58547;51.690;5.186;2022-09-09T04:50:42;12.57;;;3.85;;
69036;SDS011;58547;51.690;5.186;2022-09-09T04:53:07;6.57;;;2.60;;
69036;SDS011;58547;51.690;5.186;2022-09-09T04:55:33;9.75;;;3.20;;
69036;SDS011;58547;51.690;5.186;2022-09-09T04:58:06;10.27;;;3.05;;
69036;SDS011;58547;51.690;5.186;2022-09-09T05:00:33;6.57;;;3.53;;
69036;SDS011;58547;51.690;5.186;2022-09-09T05:03:03;6.75;;;3.03;;
69036;SDS011;58547;51.690;5.186;2022-09-09T05:05:30;8.25;;;3.47;;
69036;SDS011;58547;51.690;5.186;2022-09-09T05:10:25;8.25;;;3.17;;
69036;SDS011;58547;51.690;5.186;2022-09-09T05:15:19;10.35;;;3.38;;
69036;SDS011;58547;51.690;5.186;2022-09-09T05:17:46;6.85;;;3.20;;
69036;SDS011;58547;51.690;5.186;2022-09-09T05:22:37;11.32;;;3.92;;
69036;SDS011;58547;51.690;5.186;2022-09-09T05:27:27;7.63;;;3.28;;
69036;SDS011;58547;51.690;5.186;2022-09-09T05:29:53;7.00;;;3.53;;
69036;SDS011;58547;51.690;5.186;2022-09-09T05:32:18;16.38;;;3.80;;
69036;SDS011;58547;51.690;5.186;2022-09-09T05:34:43;6.55;;;3.05;;
69036;SDS011;58547;51.690;5.186;2022-09-09T05:39:34;7.23;;;3.43;;
69036;SDS011;58547;51.690;5.186;2022-09-09T05:42:01;7.97;;;2.75;;
69036;SDS011;58547;51.690;5.186;2022-09-09T05:44:29;12.25;;;3.40;;
69036;SDS011;58547;51.690;5.186;2022-09-09T05:49:19;15.10;;;3.60;;
69036;SDS011;58547;51.690;5.186;2022-09-09T05:51:45;7.05;;;2.92;;
69036;SDS011;58547;51.690;5.186;2022-09-09T05:54:10;12.32;;;3.88;;
69036;SDS011;58547;51.690;5.186;2022-09-09T05:56:39;11.60;;;3.28;;
69036;SDS011;58547;51.690;5.186;2022-09-09T06:01:31;19.60;;;3.60;;
69036;SDS011;58547;51.690;5.186;2022-09-09T06:03:58;12.23;;;3.85;;
69036;SDS011;58547;51.690;5.186;2022-09-09T06:08:52;10.95;;;3.40;;
69036;SDS011;58547;51.690;5.186;2022-09-09T06:13:49;12.57;;;3.58;;
69036;SDS011;58547;51.690;5.186;2022-09-09T06:16:17;9.65;;;3.45;;
69036;SDS011;58547;51.690;5.186;2022-09-09T06:18:43;10.90;;;3.35;;
69036;SDS011;58547;51.690;5.186;2022-09-09T06:23:39;10.90;;;3.85;;
69036;SDS011;58547;51.690;5.186;2022-09-09T06:30:59;9.98;;;3.95;;
69036;SDS011;58547;51.690;5.186;2022-09-09T06:33:26;10.90;;;3.75;;
69036;SDS011;58547;51.690;5.186;2022-09-09T06:35:55;8.82;;;3.28;;
69036;SDS011;58547;51.690;5.186;2022-09-09T06:38:22;11.38;;;3.75;;
69036;SDS011;58547;51.690;5.186;2022-09-09T06:40:54;8.60;;;3.97;;
69036;SDS011;58547;51.690;5.186;2022-09-09T06:43:30;9.85;;;3.30;;
69036;SDS011;58547;51.690;5.186;2022-09-09T06:45:56;9.02;;;3.47;;
69036;SDS011;58547;51.690;5.186;2022-09-09T06:48:23;9.05;;;3.80;;
69036;SDS011;58547;51.690;5.186;2022-09-09T06:50:50;15.07;;;4.47;;
69036;SDS011;58547;51.690;5.186;2022-09-09T06:53:17;12.13;;;4.05;;
69036;SDS011;58547;51.690;5.186;2022-09-09T06:55:43;9.65;;;3.83;;
69036;SDS011;58547;51.690;5.186;2022-09-09T07:00:35;14.63;;;3.20;;
69036;SDS011;58547;51.690;5.186;2022-09-09T07:03:02;13.70;;;4.38;;
69036;SDS011;58547;51.690;5.186;2022-09-09T07:07:53;10.83;;;3.53;;
69036;SDS011;58547;51.690;5.186;2022-09-09T07:12:43;7.10;;;3.17;;
69036;SDS011;58547;51.690;5.186;2022-09-09T07:17:34;10.48;;;3.50;;
69036;SDS011;58547;51.690;5.186;2022-09-09T07:22:27;13.93;;;4.05;;
69036;SDS011;58547;51.690;5.186;2022-09-09T07:24:53;10.80;;;3.38;;
69036;SDS011;58547;51.690;5.186;2022-09-09T07:29:43;13.50;;;3.27;;
69036;SDS011;58547;51.690;5.186;2022-09-09T07:32:10;9.10;;;2.92;;
69036;SDS011;58547;51.690;5.186;2022-09-09T07:37:01;8.18;;;3.17;;
69036;SDS011;58547;51.690;5.186;2022-09-09T07:44:23;8.45;;;3.13;;
69036;SDS011;58547;51.690;5.186;2022-09-09T07:46:52;10.18;;;3.30;;
69036;SDS011;58547;51.690;5.186;2022-09-09T07:51:44;12.03;;;3.13;;
69036;SDS011;58547;51.690;5.186;2022-09-09T07:54:12;17.90;;;3.95;;
69036;SDS011;58547;51.690;5.186;2022-09-09T07:56:39;12.57;;;3.58;;
69036;SDS011;58547;51.690;5.186;2022-09-09T07:59:06;13.20;;;3.55;;
69036;SDS011;58547;51.690;5.186;2022-09-09T08:01:36;16.23;;;3.60;;
69036;SDS011;58547;51.690;5.186;2022-09-09T08:04:05;13.63;;;3.60;;
69036;SDS011;58547;51.690;5.186;2022-09-09T08:06:38;12.70;;;3.25;;
69036;SDS011;58547;51.690;5.186;2022-09-09T08:09:05;7.80;;;2.45;;
69036;SDS011;58547;51.690;5.186;2022-09-09T08:11:32;11.65;;;2.72;;
69036;SDS011;58547;51.690;5.186;2022-09-09T08:18:50;9.50;;;3.50;;
69036;SDS011;58547;51.690;5.186;2022-09-09T08:21:18;8.40;;;2.63;;
69036;SDS011;58547;51.690;5.186;2022-09-09T08:23:46;11.02;;;3.13;;
69036;SDS011;58547;51.690;5.186;2022-09-09T08:26:16;8.68;;;2.22;;
69036;SDS011;58547;51.690;5.186;2022-09-09T08:28:50;10.48;;;2.88;;
69036;SDS011;58547;51.690;5.186;2022-09-09T08:31:21;8.27;;;2.83;;
69036;SDS011;58547;51.690;5.186;2022-09-09T08:33:48;13.63;;;2.95;;
69036;SDS011;58547;51.690;5.186;2022-09-09T08:36:18;7.88;;;3.13;;
69036;SDS011;58547;51.690;5.186;2022-09-09T08:38:50;8.95;;;2.67;;
69036;SDS011;58547;51.690;5.186;2022-09-09T08:44:13;10.32;;;3.53;;
69036;SDS011;58547;51.690;5.186;2022-09-09T08:52:26;9.45;;;2.47;;
69036;SDS011;58547;51.690;5.186;2022-09-09T08:55:01;10.45;;;3.17;;
69036;SDS011;58547;51.690;5.186;2022-09-09T08:57:37;8.95;;;2.83;;
69036;SDS011;58547;51.690;5.186;2022-09-09T09:00:03;14.15;;;2.72;;
69036;SDS011;58547;51.690;5.186;2022-09-09T09:05:19;9.23;;;2.97;;
69036;SDS011;58547;51.690;5.186;2022-09-09T09:13:17;9.98;;;2.92;;
69036;SDS011;58547;51.690;5.186;2022-09-09T09:15:54;8.02;;;2.10;;
69036;SDS011;58547;51.690;5.186;2022-09-09T09:18:24;8.52;;;2.10;;
69036;SDS011;58547;51.690;5.186;2022-09-09T09:23:21;7.55;;;2.20;;
69036;SDS011;58547;51.690;5.186;2022-09-09T09:25:48;8.77;;;2.38;;
69036;SDS011;58547;51.690;5.186;2022-09-09T09:28:18;10.35;;;2.30;;
69036;SDS011;58547;51.690;5.186;2022-09-09T09:30:53;9.13;;;3.08;;
69036;SDS011;58547;51.690;5.186;2022-09-09T09:36:00;12.98;;;3.00;;
69036;SDS011;58547;51.690;5.186;2022-09-09T09:38:28;13.80;;;2.50;;
69036;SDS011;58547;51.690;5.186;2022-09-09T09:40:58;11.82;;;2.95;;
69036;SDS011;58547;51.690;5.186;2022-09-09T09:43:27;7.88;;;2.45;;
69036;SDS011;58547;51.690;5.186;2022-09-09T09:45:54;10.80;;;3.10;;
69036;SDS011;58547;51.690;5.186;2022-09-09T09:50:55;10.13;;;3.83;;
69036;SDS011;58547;51.690;5.186;2022-09-09T09:53:25;8.27;;;3.30;;
69036;SDS011;58547;51.690;5.186;2022-09-09T09:55:59;19.17;;;8.13;;
69036;SDS011;58547;51.690;5.186;2022-09-09T09:58:39;12.23;;;5.20;;
69036;SDS011;58547;51.690;5.186;2022-09-09T10:01:22;10.07;;;2.97;;
69036;SDS011;58547;51.690;5.186;2022-09-09T10:03:53;16.08;;;6.75;;
69036;SDS011;58547;51.690;5.186;2022-09-09T10:08:56;14.75;;;7.88;;
69036;SDS011;58547;51.690;5.186;2022-09-09T10:19:21;16.98;;;8.07;;
69036;SDS011;58547;51.690;5.186;2022-09-09T10:26:58;11.45;;;3.75;;
69036;SDS011;58547;51.690;5.186;2022-09-09T10:29:42;11.45;;;3.28;;
69036;SDS011;58547;51.690;5.186;2022-09-09T10:49:25;10.00;;;3.15;;
69036;SDS011;58547;51.690;5.186;2022-09-09T10:52:15;10.45;;;3.60;;
69036;SDS011;58547;51.690;5.186;2022-09-09T10:57:26;10.77;;;3.33;;
69036;SDS011;58547;51.690;5.186;2022-09-09T10:59:57;9.38;;;2.97;;
69036;SDS011;58547;51.690;5.186;2022-09-09T11:02:30;6.05;;;2.50;;
69036;SDS011;58547;51.690;5.186;2022-09-09T11:05:02;6.03;;;2.33;;
69036;SDS011;58547;51.690;5.186;2022-09-09T11:07:40;12.17;;;4.17;;
69036;SDS011;58547;51.690;5.186;2022-09-09T11:10:17;10.90;;;3.80;;
69036;SDS011;58547;51.690;5.186;2022-09-09T11:12:50;5.43;;;2.53;;
69036;SDS011;58547;51.690;5.186;2022-09-09T11:15:20;7.65;;;2.80;;
69036;SDS011;58547;51.690;5.186;2022-09-09T11:17:53;7.43;;;2.90;;
69036;SDS011;58547;51.690;5.186;2022-09-09T11:20:23;8.80;;;2.85;;
69036;SDS011;58547;51.690;5.186;2022-09-09T11:23:11;13.38;;;3.33;;
69036;SDS011;58547;51.690;5.186;2022-09-09T11:25:45;13.15;;;3.83;;
69036;SDS011;58547;51.690;5.186;2022-09-09T11:37:15;10.52;;;2.53;;
69036;SDS011;58547;51.690;5.186;2022-09-09T11:42:20;6.75;;;2.95;;
69036;SDS011;58547;51.690;5.186;2022-09-09T11:44:49;9.60;;;2.75;;
69036;SDS011;58547;51.690;5.186;2022-09-09T11:49:46;9.55;;;3.13;;
69036;SDS011;58547;51.690;5.186;2022-09-09T11:55:00;7.75;;;3.15;;
69036;SDS011;58547;51.690;5.186;2022-09-09T11:58:00;8.10;;;3.27;;
69036;SDS011;58547;51.690;5.186;2022-09-09T12:00:43;5.93;;;2.85;;
69036;SDS011;58547;51.690;5.186;2022-09-09T12:06:18;11.45;;;3.25;;
69036;SDS011;58547;51.690;5.186;2022-09-09T12:08:51;14.90;;;2.80;;
69036;SDS011;58547;51.690;5.186;2022-09-09T12:11:27;5.95;;;2.75;;
69036;SDS011;58547;51.690;5.186;2022-09-09T12:13:55;6.88;;;2.70;;
69036;SDS011;58547;51.690;5.186;2022-09-09T12:16:33;10.85;;;3.22;;
69036;SDS011;58547;51.690;5.186;2022-09-09T12:19:03;7.20;;;2.80;;
69036;SDS011;58547;51.690;5.186;2022-09-09T12:27:54;6.55;;;2.33;;
69036;SDS011;58547;51.690;5.186;2022-09-09T12:30:29;11.60;;;3.35;;
69036;SDS011;58547;51.690;5.186;2022-09-09T12:33:19;7.95;;;3.20;;
69036;SDS011;58547;51.690;5.186;2022-09-09T12:35:55;9.65;;;2.92;;
69036;SDS011;58547;51.690;5.186;2022-09-09T12:38:57;8.05;;;2.95;;
69036;SDS011;58547;51.690;5.186;2022-09-09T12:41:24;9.70;;;3.08;;
69036;SDS011;58547;51.690;5.186;2022-09-09T12:43:51;10.25;;;2.85;;
69036;SDS011;58547;51.690;5.186;2022-09-09T12:46:32;9.43;;;2.63;;
69036;SDS011;58547;51.690;5.186;2022-09-09T12:49:27;11.18;;;2.67;;
69036;SDS011;58547;51.690;5.186;2022-09-09T12:51:58;10.77;;;2.83;;
69036;SDS011;58547;51.690;5.186;2022-09-09T12:54:26;8.38;;;3.10;;
69036;SDS011;58547;51.690;5.186;2022-09-09T12:56:51;7.20;;;3.03;;
69036;SDS011;58547;51.690;5.186;2022-09-09T13:02:00;12.85;;;3.17;;
69036;SDS011;58547;51.690;5.186;2022-09-09T13:04:25;8.52;;;2.72;;
69036;SDS011;58547;51.690;5.186;2022-09-09T13:06:51;9.40;;;2.55;;
69036;SDS011;58547;51.690;5.186;2022-09-09T13:09:17;6.13;;;2.25;;
69036;SDS011;58547;51.690;5.186;2022-09-09T13:11:44;4.57;;;2.17;;
69036;SDS011;58547;51.690;5.186;2022-09-09T13:14:17;8.95;;;3.05;;
69036;SDS011;58547;51.690;5.186;2022-09-09T13:16:55;6.65;;;2.38;;
69036;SDS011;58547;51.690;5.186;2022-09-09T13:19:23;7.57;;;2.25;;
69036;SDS011;58547;51.690;5.186;2022-09-09T13:21:52;7.40;;;2.95;;
69036;SDS011;58547;51.690;5.186;2022-09-09T13:24:31;6.20;;;2.85;;
69036;SDS011;58547;51.690;5.186;2022-09-09T13:27:04;5.93;;;2.40;;
69036;SDS011;58547;51.690;5.186;2022-09-09T13:29:50;6.43;;;2.20;;
69036;SDS011;58547;51.690;5.186;2022-09-09T13:32:20;5.72;;;1.90;;
69036;SDS011;58547;51.690;5.186;2022-09-09T13:34:56;8.10;;;2.30;;
69036;SDS011;58547;51.690;5.186;2022-09-09T13:37:36;16.17;;;2.78;;
69036;SDS011;58547;51.690;5.186;2022-09-09T13:40:04;4.90;;;2.05;;
69036;SDS011;58547;51.690;5.186;2022-09-09T13:42:32;4.93;;;1.70;;
69036;SDS011;58547;51.690;5.186;2022-09-09T13:45:00;4.35;;;1.67;;
69036;SDS011;58547;51.690;5.186;2022-09-09T13:47:30;6.43;;;1.90;;
69036;SDS011;58547;51.690;5.186;2022-09-09T13:49:58;6.72;;;1.80;;
69036;SDS011;58547;51.690;5.186;2022-09-09T13:52:34;8.35;;;2.30;;
69036;SDS011;58547;51.690;5.186;2022-09-09T13:54:59;7.03;;;1.92;;
69036;SDS011;58547;51.690;5.186;2022-09-09T14:02:16;4.28;;;1.27;;
69036;SDS011;58547;51.690;5.186;2022-09-09T14:04:42;6.88;;;1.98;;
69036;SDS011;58547;51.690;5.186;2022-09-09T14:07:14;4.82;;;1.88;;
69036;SDS011;58547;51.690;5.186;2022-09-09T14:09:41;4.70;;;1.83;;
69036;SDS011;58547;51.690;5.186;2022-09-09T14:12:10;5.18;;;1.48;;
69036;SDS011;58547;51.690;5.186;2022-09-09T14:14:37;7.18;;;1.83;;
69036;SDS011;58547;51.690;5.186;2022-09-09T14:17:03;6.93;;;1.83;;
69036;SDS011;58547;51.690;5.186;2022-09-09T14:19:28;3.08;;;1.83;;
69036;SDS011;58547;51.690;5.186;2022-09-09T14:21:55;6.30;;;1.35;;
69036;SDS011;58547;51.690;5.186;2022-09-09T14:24:21;6.03;;;1.60;;
69036;SDS011;58547;51.690;5.186;2022-09-09T14:26:46;4.22;;;1.45;;
69036;SDS011;58547;51.690;5.186;2022-09-09T14:29:12;6.90;;;1.45;;
69036;SDS011;58547;51.690;5.186;2022-09-09T14:31:38;3.85;;;1.52;;
69036;SDS011;58547;51.690;5.186;2022-09-09T14:34:03;3.70;;;1.30;;
69036;SDS011;58547;51.690;5.186;2022-09-09T14:36:28;3.15;;;1.40;;
69036;SDS011;58547;51.690;5.186;2022-09-09T14:38:54;2.55;;;1.17;;
69036;SDS011;58547;51.690;5.186;2022-09-09T14:41:19;3.78;;;1.20;;
69036;SDS011;58547;51.690;5.186;2022-09-09T14:43:47;5.47;;;1.30;;
69036;SDS011;58547;51.690;5.186;2022-09-09T14:46:14;5.28;;;1.70;;
69036;SDS011;58547;51.690;5.186;2022-09-09T14:48:41;6.13;;;1.50;;
69036;SDS011;58547;51.690;5.186;2022-09-09T14:51:07;4.53;;;1.70;;
69036;SDS011;58547;51.690;5.186;2022-09-09T14:53:37;5.00;;;2.05;;
69036;SDS011;58547;51.690;5.186;2022-09-09T14:56:07;4.35;;;1.38;;
69036;SDS011;58547;51.690;5.186;2022-09-09T14:58:34;4.35;;;1.40;;
69036;SDS011;58547;51.690;5.186;2022-09-09T15:01:10;4.03;;;1.95;;
69036;SDS011;58547;51.690;5.186;2022-09-09T15:03:37;3.63;;;1.98;;
69036;SDS011;58547;51.690;5.186;2022-09-09T15:06:07;6.88;;;1.75;;
69036;SDS011;58547;51.690;5.186;2022-09-09T15:08:38;4.40;;;1.42;;
69036;SDS011;58547;51.690;5.186;2022-09-09T15:11:05;7.00;;;1.90;;
69036;SDS011;58547;51.690;5.186;2022-09-09T15:13:32;4.50;;;1.90;;
69036;SDS011;58547;51.690;5.186;2022-09-09T15:16:05;5.63;;;2.10;;
69036;SDS011;58547;51.690;5.186;2022-09-09T15:18:35;5.78;;;2.33;;
69036;SDS011;58547;51.690;5.186;2022-09-09T15:21:08;4.60;;;2.58;;
69036;SDS011;58547;51.690;5.186;2022-09-09T15:23:36;4.88;;;2.47;;
69036;SDS011;58547;51.690;5.186;2022-09-09T15:26:02;6.70;;;2.20;;
69036;SDS011;58547;51.690;5.186;2022-09-09T15:28:29;3.17;;;2.13;;
69036;SDS011;58547;51.690;5.186;2022-09-09T15:30:56;6.50;;;2.15;;
69036;SDS011;58547;51.690;5.186;2022-09-09T15:33:22;3.20;;;2.10;;
69036;SDS011;58547;51.690;5.186;2022-09-09T15:35:48;3.53;;;1.90;;
69036;SDS011;58547;51.690;5.186;2022-09-09T15:38:15;5.63;;;2.22;;
69036;SDS011;58547;51.690;5.186;2022-09-09T15:40:42;5.60;;;1.90;;
69036;SDS011;58547;51.690;5.186;2022-09-09T15:43:08;4.10;;;1.92;;
69036;SDS011;58547;51.690;5.186;2022-09-09T15:45:36;3.72;;;1.88;;
69036;SDS011;58547;51.690;5.186;2022-09-09T15:48:05;2.78;;;1.50;;
69036;SDS011;58547;51.690;5.186;2022-09-09T15:50:30;6.43;;;1.50;;
69036;SDS011;58547;51.690;5.186;2022-09-09T15:52:56;3.13;;;1.63;;
69036;SDS011;58547;51.690;5.186;2022-09-09T15:55:22;2.75;;;1.25;;
69036;SDS011;58547;51.690;5.186;2022-09-09T15:57:49;4.38;;;1.25;;
69036;SDS011;58547;51.690;5.186;2022-09-09T16:00:14;3.22;;;1.00;;
69036;SDS011;58547;51.690;5.186;2022-09-09T16:02:40;6.95;;;1.55;;
69036;SDS011;58547;51.690;5.186;2022-09-09T16:05:05;2.55;;;1.30;;
69036;SDS011;58547;51.690;5.186;2022-09-09T16:07:31;3.53;;;1.77;;
69036;SDS011;58547;51.690;5.186;2022-09-09T16:09:57;6.25;;;1.42;;
69036;SDS011;58547;51.690;5.186;2022-09-09T16:12:22;4.68;;;1.50;;
69036;SDS011;58547;51.690;5.186;2022-09-09T16:14:48;3.58;;;1.13;;
69036;SDS011;58547;51.690;5.186;2022-09-09T16:17:13;10.35;;;1.52;;
69036;SDS011;58547;51.690;5.186;2022-09-09T16:19:40;2.85;;;1.25;;
69036;SDS011;58547;51.690;5.186;2022-09-09T16:22:05;4.32;;;1.42;;
69036;SDS011;58547;51.690;5.186;2022-09-09T16:24:31;3.95;;;1.10;;
69036;SDS011;58547;51.690;5.186;2022-09-09T16:26:57;5.32;;;1.50;;
69036;SDS011;58547;51.690;5.186;2022-09-09T16:29:23;3.95;;;1.50;;
69036;SDS011;58547;51.690;5.186;2022-09-09T16:31:52;5.85;;;2.13;;
69036;SDS011;58547;51.690;5.186;2022-09-09T16:34:18;5.18;;;1.80;;
69036;SDS011;58547;51.690;5.186;2022-09-09T16:36:44;5.90;;;2.10;;
69036;SDS011;58547;51.690;5.186;2022-09-09T16:39:11;5.55;;;2.13;;
69036;SDS011;58547;51.690;5.186;2022-09-09T16:41:39;3.00;;;1.95;;
69036;SDS011;58547;51.690;5.186;2022-09-09T16:44:06;4.55;;;2.03;;
69036;SDS011;58547;51.690;5.186;2022-09-09T16:46:37;5.47;;;2.22;;
69036;SDS011;58547;51.690;5.186;2022-09-09T16:49:05;5.68;;;2.33;;
69036;SDS011;58547;51.690;5.186;2022-09-09T16:51:33;5.35;;;2.13;;
69036;SDS011;58547;51.690;5.186;2022-09-09T16:54:01;5.25;;;2.42;;
69036;SDS011;58547;51.690;5.186;2022-09-09T16:56:29;4.25;;;1.60;;
69036;SDS011;58547;51.690;5.186;2022-09-09T16:58:58;3.63;;;1.98;;
69036;SDS011;58547;51.690;5.186;2022-09-09T17:01:27;5.55;;;1.63;;
69036;SDS011;58547;51.690;5.186;2022-09-09T17:03:54;4.80;;;2.15;;
69036;SDS011;58547;51.690;5.186;2022-09-09T17:06:21;5.88;;;1.80;;
69036;SDS011;58547;51.690;5.186;2022-09-09T17:08:47;5.15;;;1.70;;
69036;SDS011;58547;51.690;5.186;2022-09-09T17:11:14;4.53;;;2.00;;
69036;SDS011;58547;51.690;5.186;2022-09-09T17:13:44;5.38;;;2.20;;
69036;SDS011;58547;51.690;5.186;2022-09-09T17:16:11;2.95;;;1.60;;
69036;SDS011;58547;51.690;5.186;2022-09-09T17:18:38;4.97;;;2.00;;
69036;SDS011;58547;51.690;5.186;2022-09-09T17:21:05;3.47;;;1.60;;
69036;SDS011;58547;51.690;5.186;2022-09-09T17:23:31;10.57;;;2.63;;
69036;SDS011;58547;51.690;5.186;2022-09-09T17:25:58;4.47;;;2.10;;
69036;SDS011;58547;51.690;5.186;2022-09-09T17:28:25;6.72;;;3.03;;
69036;SDS011;58547;51.690;5.186;2022-09-09T17:30:55;7.25;;;2.83;;
69036;SDS011;58547;51.690;5.186;2022-09-09T17:33:21;6.35;;;2.53;;
69036;SDS011;58547;51.690;5.186;2022-09-09T17:35:48;8.25;;;2.70;;
69036;SDS011;58547;51.690;5.186;2022-09-09T17:38:14;5.20;;;2.15;;
69036;SDS011;58547;51.690;5.186;2022-09-09T17:40:39;4.00;;;2.17;;
69036;SDS011;58547;51.690;5.186;2022-09-09T17:43:05;3.33;;;2.03;;
69036;SDS011;58547;51.690;5.186;2022-09-09T17:45:30;5.80;;;2.42;;
69036;SDS011;58547;51.690;5.186;2022-09-09T17:47:56;5.65;;;2.22;;
69036;SDS011;58547;51.690;5.186;2022-09-09T17:50:22;7.63;;;2.50;;
69036;SDS011;58547;51.690;5.186;2022-09-09T17:52:47;5.28;;;2.13;;
69036;SDS011;58547;51.690;5.186;2022-09-09T17:57:40;9.05;;;2.72;;
69036;SDS011;58547;51.690;5.186;2022-09-09T18:00:06;5.28;;;2.65;;
69036;SDS011;58547;51.690;5.186;2022-09-09T18:02:32;6.05;;;3.10;;
69036;SDS011;58547;51.690;5.186;2022-09-09T18:04:57;8.52;;;2.72;;
69036;SDS011;58547;51.690;5.186;2022-09-09T18:12:14;6.40;;;3.30;;
69036;SDS011;58547;51.690;5.186;2022-09-09T18:14:40;7.30;;;3.13;;
69036;SDS011;58547;51.690;5.186;2022-09-09T18:17:05;6.60;;;3.55;;
69036;SDS011;58547;51.690;5.186;2022-09-09T18:19:33;6.80;;;3.20;;
69036;SDS011;58547;51.690;5.186;2022-09-09T18:21:59;8.48;;;3.17;;
69036;SDS011;58547;51.690;5.186;2022-09-09T18:24:27;6.45;;;3.10;;
69036;SDS011;58547;51.690;5.186;2022-09-09T18:26:53;5.65;;;3.45;;
69036;SDS011;58547;51.690;5.186;2022-09-09T18:31:46;6.20;;;2.85;;
69036;SDS011;58547;51.690;5.186;2022-09-09T18:34:13;11.00;;;3.83;;
69036;SDS011;58547;51.690;5.186;2022-09-09T18:36:41;14.85;;;4.10;;
69036;SDS011;58547;51.690;5.186;2022-09-09T18:39:12;6.22;;;3.65;;
69036;SDS011;58547;51.690;5.186;2022-09-09T18:41:41;7.80;;;3.33;;
69036;SDS011;58547;51.690;5.186;2022-09-09T18:44:10;7.97;;;3.90;;
69036;SDS011;58547;51.690;5.186;2022-09-09T18:46:40;7.53;;;3.53;;
69036;SDS011;58547;51.690;5.186;2022-09-09T18:49:06;4.95;;;3.33;;
69036;SDS011;58547;51.690;5.186;2022-09-09T18:54:00;5.45;;;3.13;;
69036;SDS011;58547;51.690;5.186;2022-09-09T18:56:27;7.15;;;3.30;;
69036;SDS011;58547;51.690;5.186;2022-09-09T18:58:58;7.82;;;3.35;;